createdAt,value
2023-03-10T00:05:50.656Z,3
2023-03-10T00:11:50.503Z,3
2023-03-10T00:17:50.508Z,4
2023-03-10T00:23:50.615Z,3
2023-03-10T00:29:50.562Z,2
2023-03-10T00:35:50.542Z,2
2023-03-10T00:41:50.532Z,2
2023-03-10T00:47:50.521Z,1
2023-03-10T00:53:50.529Z,1
2023-03-10T00:59:50.939Z,2
2023-03-10T01:05:50.532Z,1
2023-03-10T01:11:50.515Z,1
2023-03-10T01:17:50.541Z,2
2023-03-10T01:23:50.531Z,1
2023-03-10T01:29:50.540Z,1
2023-03-10T01:35:50.575Z,1
2023-03-10T01:41:50.514Z,1
2023-03-10T01:47:50.524Z,1
2023-03-10T01:53:50.528Z,1
2023-03-10T01:59:50.506Z,2
2023-03-10T02:05:50.545Z,1
2023-03-10T02:11:50.618Z,2
2023-03-10T02:17:50.561Z,2
2023-03-10T02:24:00.942Z,2
2023-03-10T02:29:58.908Z,2
2023-03-10T02:35:50.637Z,1
2023-03-10T02:41:50.696Z,3
2023-03-10T02:47:50.532Z,2
2023-03-10T02:54:00.792Z,2
2023-03-10T02:59:50.546Z,2
2023-03-10T03:05:50.552Z,1
2023-03-10T03:11:50.522Z,2
2023-03-10T03:17:50.574Z,2
2023-03-10T03:23:50.544Z,4
2023-03-10T03:29:50.504Z,2
2023-03-10T03:35:50.544Z,6
2023-03-10T03:41:50.517Z,5
2023-03-10T03:47:50.521Z,5
2023-03-10T03:53:50.524Z,7
2023-03-10T03:59:50.540Z,7
2023-03-10T04:05:50.516Z,8
2023-03-10T04:11:50.512Z,5
2023-03-10T04:17:50.629Z,10
2023-03-10T04:23:50.522Z,6
2023-03-10T04:29:50.523Z,8
2023-03-10T04:35:50.542Z,10
2023-03-10T04:41:50.516Z,7
2023-03-10T04:47:50.584Z,6
2023-03-10T04:53:50.532Z,7
2023-03-10T04:59:50.598Z,7
2023-03-10T05:05:50.511Z,6
2023-03-10T05:11:50.541Z,6
2023-03-10T05:17:50.516Z,8
2023-03-10T05:23:50.511Z,7
2023-03-10T05:29:50.553Z,7
2023-03-10T05:35:50.572Z,14
2023-03-10T05:41:50.509Z,5
2023-03-10T05:47:50.528Z,5
2023-03-10T05:53:50.561Z,7
2023-03-10T05:59:55.939Z,5
2023-03-10T06:05:50.530Z,4
2023-03-10T06:11:50.583Z,3
2023-03-10T06:17:50.577Z,7
2023-03-10T06:23:50.537Z,6
2023-03-10T06:29:50.508Z,5
2023-03-10T06:35:50.578Z,4
2023-03-10T06:41:50.558Z,5
2023-03-10T06:47:50.502Z,5
2023-03-10T06:53:50.516Z,9
2023-03-10T06:59:54.711Z,6
2023-03-10T07:05:50.508Z,6
2023-03-10T07:11:50.701Z,7
2023-03-10T07:17:50.524Z,7
2023-03-10T07:23:50.501Z,5
2023-03-10T07:29:50.495Z,10
2023-03-10T07:35:50.627Z,10
2023-03-10T07:41:50.518Z,6
2023-03-10T07:47:50.515Z,6
2023-03-10T07:53:50.538Z,5
2023-03-10T07:59:50.491Z,7
2023-03-10T08:05:50.541Z,8
2023-03-10T08:11:50.517Z,6
2023-03-10T08:17:50.523Z,7
2023-03-10T08:23:50.522Z,9
2023-03-10T08:29:50.514Z,6
2023-03-10T08:35:50.532Z,7
2023-03-10T08:41:50.522Z,7
2023-03-10T08:47:50.526Z,4
2023-03-10T08:53:50.508Z,5
2023-03-10T08:59:50.497Z,7
2023-03-10T09:05:50.558Z,5
2023-03-10T09:11:50.515Z,4
2023-03-10T09:17:50.497Z,4
2023-03-10T09:23:50.601Z,5
2023-03-10T09:29:50.700Z,5
2023-03-10T09:36:05.864Z,6
2023-03-10T09:42:00.818Z,7
2023-03-10T09:47:50.529Z,5
2023-03-10T09:53:50.512Z,6
2023-03-10T09:59:50.542Z,5
2023-03-10T10:05:50.518Z,5
2023-03-10T10:11:50.526Z,3
2023-03-10T10:18:12.182Z,5
2023-03-10T10:23:50.517Z,5
2023-03-10T10:29:50.522Z,4
2023-03-10T10:35:50.595Z,5
2023-03-10T10:41:50.971Z,5
2023-03-10T10:47:50.560Z,3
2023-03-10T10:53:50.547Z,5
2023-03-10T10:59:50.506Z,6
2023-03-10T11:05:50.540Z,5
2023-03-10T11:11:50.550Z,4
2023-03-10T11:17:50.511Z,4
2023-03-10T11:23:50.523Z,5
2023-03-10T11:29:50.634Z,3
2023-03-10T11:35:50.546Z,4
2023-03-10T11:41:50.522Z,4
2023-03-10T11:47:50.539Z,4
2023-03-10T11:53:50.549Z,3
2023-03-10T11:59:50.530Z,3
2023-03-10T12:05:50.668Z,2
2023-03-10T12:11:50.524Z,3
2023-03-10T12:17:50.519Z,4
2023-03-10T12:23:50.549Z,2
2023-03-10T12:29:50.504Z,3
2023-03-10T12:35:50.578Z,2
2023-03-10T12:41:50.538Z,2
2023-03-10T12:47:50.501Z,2
2023-03-10T12:53:50.514Z,4
2023-03-10T12:59:50.525Z,2
2023-03-10T13:05:50.507Z,7
2023-03-10T13:11:50.508Z,6
2023-03-10T13:17:50.578Z,3
2023-03-10T13:23:50.514Z,3
2023-03-10T13:29:50.508Z,3
2023-03-10T13:35:50.590Z,3
2023-03-10T13:41:50.502Z,2
2023-03-10T13:47:50.531Z,4
2023-03-10T13:53:50.542Z,1
2023-03-10T13:59:50.520Z,2
2023-03-10T14:05:50.526Z,1
2023-03-10T14:11:50.979Z,4
2023-03-10T14:17:50.506Z,1
2023-03-10T14:23:50.500Z,2
2023-03-10T14:29:50.534Z,1
2023-03-10T14:35:50.600Z,2
2023-03-10T14:41:50.553Z,3
2023-03-10T14:47:50.718Z,1
2023-03-10T14:53:50.693Z,1
2023-03-10T14:59:50.493Z,1
2023-03-10T15:05:50.523Z,1
2023-03-10T15:11:50.516Z,1
2023-03-10T15:17:50.524Z,3
2023-03-10T15:23:50.525Z,1
2023-03-10T15:29:50.530Z,16
2023-03-10T15:35:50.557Z,2
2023-03-10T15:41:50.526Z,2
2023-03-10T15:47:50.576Z,3
2023-03-10T15:53:50.525Z,3
2023-03-10T15:59:50.538Z,3
2023-03-10T16:05:50.520Z,3
2023-03-10T16:11:50.503Z,2
2023-03-10T16:17:50.537Z,2
2023-03-10T16:23:50.495Z,2
2023-03-10T16:29:50.488Z,11
2023-03-10T16:35:50.690Z,1
2023-03-10T16:41:50.501Z,6
2023-03-10T16:47:50.507Z,1
2023-03-10T16:53:50.510Z,1
2023-03-10T16:59:50.494Z,1
2023-03-10T17:05:50.497Z,1
2023-03-10T17:11:50.505Z,2
2023-03-10T17:17:50.487Z,2
2023-03-10T17:23:50.514Z,4
2023-03-10T17:29:50.507Z,5
2023-03-10T17:35:50.528Z,8
2023-03-10T17:41:50.474Z,8
2023-03-10T17:47:50.522Z,11
2023-03-10T17:53:50.472Z,15
2023-03-10T17:59:50.499Z,12
2023-03-10T18:05:50.510Z,12
2023-03-10T18:11:50.485Z,12
2023-03-10T18:17:50.482Z,9
2023-03-10T18:23:50.516Z,9
2023-03-10T18:29:50.473Z,8
2023-03-10T18:35:50.464Z,10
2023-03-10T18:41:50.504Z,9
2023-03-10T18:47:50.468Z,8
2023-03-10T18:53:50.479Z,7
2023-03-10T18:59:50.544Z,7
2023-03-10T19:05:50.481Z,6
2023-03-10T19:11:50.524Z,5
2023-03-10T19:17:50.491Z,6
2023-03-10T19:23:50.459Z,8
2023-03-10T19:29:50.456Z,8
2023-03-10T19:35:50.534Z,7
2023-03-10T19:41:50.450Z,6
2023-03-10T19:47:50.456Z,10
2023-03-10T19:53:50.463Z,9
2023-03-10T19:59:50.430Z,7
2023-03-10T20:05:50.448Z,6
2023-03-10T20:11:50.488Z,5
2023-03-10T20:17:50.449Z,6
2023-03-10T20:23:50.445Z,6
2023-03-10T20:29:50.457Z,7
2023-03-10T20:35:50.485Z,6
2023-03-10T20:41:50.444Z,7
2023-03-10T20:47:50.526Z,8
2023-03-10T20:53:50.514Z,8
2023-03-10T20:59:50.440Z,9
2023-03-10T21:05:50.459Z,11
2023-03-10T21:11:50.421Z,12
2023-03-10T21:17:50.413Z,11
2023-03-10T21:23:50.453Z,14
2023-03-10T21:29:50.426Z,11
2023-03-10T21:35:50.459Z,12
2023-03-10T21:41:50.458Z,12
2023-03-10T21:47:50.425Z,12
2023-03-10T21:53:50.422Z,12
2023-03-10T21:59:50.452Z,11
2023-03-10T22:05:50.469Z,9
2023-03-10T22:11:50.411Z,11
2023-03-10T22:17:50.466Z,10
2023-03-10T22:23:50.425Z,10
2023-03-10T22:29:50.403Z,11
2023-03-10T22:35:50.440Z,9
2023-03-10T22:41:50.404Z,12
2023-03-10T22:47:50.389Z,9
2023-03-10T22:53:50.417Z,9
2023-03-10T22:59:50.414Z,11
2023-03-10T23:05:50.391Z,9
2023-03-10T23:11:50.424Z,14
2023-03-10T23:17:50.392Z,11
2023-03-10T23:23:50.408Z,10
2023-03-10T23:29:50.408Z,10
2023-03-10T23:35:50.612Z,9
2023-03-10T23:41:50.409Z,7
2023-03-10T23:47:50.411Z,8
2023-03-10T23:53:50.391Z,12
2023-03-10T23:59:50.373Z,9
